Time;durP1;ratioP1;P1;durP2;ratioP2;P2;SDS_P1;SDS_P2;PMS_P1;PMS_P2;Temp;Humidity;BMP_temperature;BMP_pressure;BME280_temperature;BME280_humidity;BME280_pressure;Samples;Min_cycle;Max_cycle;Signal;HPM_P1;HPM_P2
2021/03/14 00:00:33;;;;;;;2.25;1.05;;;;;;;6.41;65.41;98858.38;10386825;28;20129;-69
2021/03/14 00:05:39;;;;;;;4.30;0.80;;;;;;;6.45;65.98;98873.00;10385632;28;20050;-68
2021/03/14 00:10:43;;;;;;;4.68;0.93;;;;;;;6.42;66.30;98871.44;10388288;28;20158;-70
2021/03/14 00:15:46;;;;;;;2.00;0.70;;;;;;;6.33;66.93;98873.06;10360314;28;20056;-69
2021/03/14 00:20:47;;;;;;;3.17;1.13;;;;;;;6.16;67.88;98871.03;10399145;28;20061;-69
2021/03/14 00:25:49;;;;;;;1.73;0.77;;;;;;;5.99;68.56;98868.00;10382163;28;20369;-67
2021/03/14 00:30:50;;;;;;;3.85;1.02;;;;;;;5.80;69.50;98867.81;10390932;28;20133;-70
2021/03/14 00:35:52;;;;;;;3.63;1.58;;;;;;;5.70;69.47;98866.91;10394338;28;20121;-69
2021/03/14 00:40:53;;;;;;;4.60;2.10;;;;;;;5.69;69.98;98892.47;10376524;28;20131;-68
2021/03/14 00:45:54;;;;;;;4.32;1.70;;;;;;;5.68;70.34;98890.78;10391472;28;20144;-69
2021/03/14 00:51:06;;;;;;;2.13;0.80;;;;;;;5.63;70.46;98899.09;10390528;28;20049;-70
2021/03/14 00:56:07;;;;;;;3.17;0.88;;;;;;;5.75;70.03;98906.97;10390526;28;20508;-69
2021/03/14 01:01:08;;;;;;;2.58;1.10;;;;;;;5.87;69.70;98913.03;10389779;28;20140;-68
2021/03/14 01:06:10;;;;;;;5.57;1.75;;;;;;;5.90;69.33;98915.41;10367912;28;20305;-69
2021/03/14 01:11:11;;;;;;;2.65;0.88;;;;;;;5.94;69.00;98928.25;10388281;28;20160;-69
2021/03/14 01:16:13;;;;;;;2.50;0.88;;;;;;;5.99;69.16;98934.03;10388302;28;20072;-70
2021/03/14 01:21:25;;;;;;;3.40;0.80;;;;;;;5.93;69.25;98931.88;10396948;28;20041;-66
2021/03/14 01:26:26;;;;;;;3.95;0.90;;;;;;;5.84;69.12;98940.56;10392464;28;20064;-69
2021/03/14 01:31:27;;;;;;;2.33;0.80;;;;;;;5.86;69.11;98958.91;10376766;28;20140;-69
2021/03/14 01:36:29;;;;;;;4.07;0.70;;;;;;;5.89;69.34;98956.84;10391956;28;20243;-69
2021/03/14 01:41:31;;;;;;;1.63;0.70;;;;;;;5.87;69.14;98964.06;10386033;28;20622;-69
2021/03/14 01:46:33;;;;;;;2.50;0.88;;;;;;;5.92;69.34;98969.81;10383952;28;20120;-70
2021/03/14 01:51:48;;;;;;;3.70;1.00;;;;;;;5.87;69.35;98968.50;10392692;28;20072;-69
2021/03/14 01:56:49;;;;;;;4.82;1.33;;;;;;;5.76;69.57;98978.13;10387340;28;20050;-68
2021/03/14 02:01:51;;;;;;;3.92;1.02;;;;;;;5.68;69.92;98990.28;10386301;28;20144;-68
2021/03/14 02:06:53;;;;;;;2.63;1.48;;;;;;;5.73;70.31;98991.56;10384497;28;20115;-70
2021/03/14 02:11:57;;;;;;;2.88;1.05;;;;;;;5.86;69.80;98994.06;10369857;28;20053;-69
2021/03/14 02:16:59;;;;;;;3.63;1.23;;;;;;;5.99;69.66;98994.78;10379468;28;20111;-69
2021/03/14 02:22:11;;;;;;;3.70;1.17;;;;;;;5.89;69.31;98999.09;10383131;28;20396;-70
2021/03/14 02:27:14;;;;;;;5.55;2.55;;;;;;;5.96;70.22;99010.88;10365968;28;20056;-69
2021/03/14 02:32:17;;;;;;;4.65;1.45;;;;;;;5.79;72.47;99009.56;10393266;28;20056;-69
2021/03/14 02:37:21;;;;;;;4.70;1.90;;;;;;;5.96;72.85;99021.44;10385192;28;20115;-70
2021/03/14 02:42:27;;;;;;;3.85;1.05;;;;;;;5.94;72.69;99028.63;10384965;28;20049;-70
2021/03/14 02:47:29;;;;;;;5.03;1.20;;;;;;;6.00;73.43;99028.19;10386800;28;20065;-69
2021/03/14 02:52:36;;;;;;;2.88;1.33;;;;;;;5.84;72.87;99033.81;10369799;28;20107;-69
2021/03/14 02:57:40;;;;;;;4.15;1.77;;;;;;;6.08;73.66;99050.47;10370264;28;20049;-70
2021/03/14 03:02:48;;;;;;;3.10;1.02;;;;;;;6.19;73.46;99058.38;10366647;28;20057;-68
2021/03/14 03:07:57;;;;;;;3.60;1.55;;;;;;;6.15;73.37;99067.50;10386687;28;20364;-69
2021/03/14 03:13:00;;;;;;;4.35;1.55;;;;;;;6.05;73.00;99066.56;10375053;28;20102;-70
2021/03/14 03:18:02;;;;;;;5.72;1.90;;;;;;;6.03;73.56;99079.09;10367874;28;20045;-69
2021/03/14 03:23:04;;;;;;;2.83;1.30;;;;;;;6.09;73.53;99095.25;10389582;28;20325;-69
2021/03/14 03:28:06;;;;;;;3.88;1.55;;;;;;;5.95;73.18;99087.59;10362023;28;20099;-69
2021/03/14 03:33:07;;;;;;;3.25;1.50;;;;;;;5.82;72.69;99103.56;10380720;28;20103;-70
2021/03/14 03:38:09;;;;;;;2.28;1.05;;;;;;;5.76;72.82;99106.69;10364666;28;20146;-70
2021/03/14 03:43:21;;;;;;;3.85;1.30;;;;;;;5.88;71.83;99124.19;10396287;28;20136;-70
2021/03/14 03:48:31;;;;;;;3.60;1.38;;;;;;;5.94;70.90;99129.00;10388834;28;20226;-69
2021/03/14 03:53:34;;;;;;;2.60;1.33;;;;;;;5.97;71.83;99134.06;10395393;28;20192;-70
2021/03/14 03:58:36;;;;;;;4.13;1.73;;;;;;;5.84;71.93;99147.38;10375038;28;20072;-70
2021/03/14 04:03:40;;;;;;;3.67;1.20;;;;;;;5.81;71.39;99139.69;10392787;28;20133;-69
2021/03/14 04:08:43;;;;;;;4.47;1.50;;;;;;;5.74;71.18;99153.50;10396751;28;20144;-69
2021/03/14 04:13:46;;;;;;;2.83;1.23;;;;;;;5.91;71.04;99175.94;10369281;28;20395;-69
2021/03/14 04:18:50;;;;;;;2.60;1.08;;;;;;;5.87;70.76;99188.56;10395409;28;20065;-69
2021/03/14 04:23:53;;;;;;;2.83;1.60;;;;;;;5.80;70.49;99195.28;10375800;28;20119;-70
2021/03/14 04:28:57;;;;;;;3.67;0.98;;;;;;;5.78;71.74;99189.25;10367406;28;20075;-69
2021/03/14 04:33:59;;;;;;;3.50;1.13;;;;;;;5.81;70.90;99215.44;10392631;28;20103;-68
2021/03/14 04:39:01;;;;;;;3.05;1.15;;;;;;;5.69;71.28;99221.66;10371583;28;20420;-69
2021/03/14 04:44:04;;;;;;;3.85;0.90;;;;;;;5.70;71.10;99236.56;10387525;28;20147;-70
2021/03/14 04:49:06;;;;;;;3.45;1.02;;;;;;;5.81;70.75;99239.19;10415200;22;20196;-66
2021/03/14 04:54:10;;;;;;;1.38;0.98;;;;;;;5.78;70.33;99244.72;10395386;28;20040;-66
2021/03/14 04:59:13;;;;;;;3.97;0.90;;;;;;;5.73;70.09;99257.44;10404616;28;20079;-65
2021/03/14 05:04:19;;;;;;;2.58;0.88;;;;;;;5.74;70.02;99259.97;10397159;28;20136;-64
2021/03/14 05:09:20;;;;;;;2.10;0.85;;;;;;;5.66;69.36;99268.47;10392983;28;20068;-67
2021/03/14 05:14:22;;;;;;;2.13;0.70;;;;;;;5.59;70.79;99276.97;10400086;28;20125;-65
2021/03/14 05:19:24;;;;;;;2.10;1.00;;;;;;;5.65;70.92;99287.06;10405173;28;20423;-65
2021/03/14 05:24:33;;;;;;;3.80;1.33;;;;;;;5.43;71.47;99275.47;10397534;28;20045;-64
2021/03/14 05:29:35;;;;;;;2.20;0.60;;;;;;;5.55;71.86;99296.63;10400768;28;20045;-64
2021/03/14 05:34:37;;;;;;;1.67;0.80;;;;;;;5.45;71.88;99296.47;10391146;28;20135;-64
2021/03/14 05:39:38;;;;;;;2.35;0.50;;;;;;;5.26;72.27;99297.84;10395227;28;20055;-65
2021/03/14 05:44:40;;;;;;;1.05;0.45;;;;;;;5.35;71.31;99322.72;10396198;28;20053;-65
2021/03/14 05:49:41;;;;;;;1.65;0.60;;;;;;;5.24;71.54;99326.16;10390404;28;20645;-65
2021/03/14 05:54:52;;;;;;;1.20;0.60;;;;;;;5.21;71.19;99347.50;10392210;28;20045;-65
2021/03/14 05:59:55;;;;;;;1.40;0.50;;;;;;;5.11;71.23;99343.81;10402773;28;20152;-64
2021/03/14 06:04:57;;;;;;;1.45;0.55;;;;;;;5.17;71.25;99351.28;10398987;28;20057;-65
2021/03/14 06:09:59;;;;;;;1.20;0.50;;;;;;;5.21;70.31;99363.31;10398512;28;20492;-65
2021/03/14 06:15:00;;;;;;;2.10;0.82;;;;;;;5.10;70.44;99368.50;10397970;28;20050;-65
2021/03/14 06:20:04;;;;;;;2.42;0.50;;;;;;;5.08;69.82;99388.91;10399118;28;20136;-65
2021/03/14 06:25:26;;;;;;;1.30;1.05;;;;;;;5.13;69.41;99389.41;10392779;28;20045;-65
2021/03/14 06:30:31;;;;;;;1.77;1.10;;;;;;;5.20;69.17;99403.00;10391020;28;20045;-65
2021/03/14 06:35:54;;;;;;;2.40;1.20;;;;;;;5.38;68.54;99411.41;10399992;28;20045;-64
2021/03/14 06:41:01;;;;;;;2.80;1.30;;;;;;;5.37;68.46;99422.91;10386024;28;20128;-63
2021/03/14 06:46:17;;;;;;;3.70;1.30;;;;;;;5.37;68.76;99433.44;10388412;28;20127;-64
2021/03/14 06:51:40;;;;;;;3.28;1.65;;;;;;;5.42;68.52;99436.59;10390655;28;20100;-63
2021/03/14 06:56:41;;;;;;;2.28;1.40;;;;;;;5.25;68.26;99451.84;10381820;28;20368;-63
2021/03/14 07:01:56;;;;;;;3.80;1.98;;;;;;;5.35;67.37;99464.41;10388658;28;20069;-63
2021/03/14 07:06:59;;;;;;;2.70;1.10;;;;;;;5.62;66.61;99470.31;10390484;28;20055;-63
2021/03/14 07:12:00;;;;;;;2.58;1.42;;;;;;;5.79;65.42;99482.28;10393593;28;20124;-63
2021/03/14 07:17:01;;;;;;;4.85;1.83;;;;;;;5.75;65.40;99474.69;10396035;28;20129;-63
2021/03/14 07:22:09;;;;;;;2.63;1.52;;;;;;;6.03;64.36;99502.63;10403043;28;20565;-64
2021/03/14 07:27:12;;;;;;;3.58;1.42;;;;;;;6.24;64.42;99520.50;10385243;28;20562;-63
2021/03/14 07:32:13;;;;;;;2.95;1.10;;;;;;;6.37;63.39;99522.09;10394561;28;20053;-63
2021/03/14 07:37:16;;;;;;;3.17;1.40;;;;;;;6.51;62.96;99528.16;10386749;28;20188;-62
2021/03/14 07:42:22;;;;;;;4.15;1.20;;;;;;;6.62;62.33;99532.63;10380991;28;20056;-63
2021/03/14 07:47:27;;;;;;;3.47;1.15;;;;;;;6.65;62.45;99529.75;10383183;28;20045;-63
2021/03/14 07:52:29;;;;;;;;;;;;;;;6.76;61.65;99542.19;10383401;28;20081;-62
2021/03/14 07:57:31;;;;;;;3.25;1.20;;;;;;;7.13;61.59;99539.34;10382360;28;20020;-62
2021/03/14 08:02:33;;;;;;;3.28;1.38;;;;;;;7.25;60.92;99539.25;10387709;28;20057;-63
2021/03/14 08:07:35;;;;;;;4.30;1.83;;;;;;;7.43;59.97;99560.78;10385605;28;20132;-65
2021/03/14 08:12:41;;;;;;;4.70;0.90;;;;;;;7.47;59.67;99573.78;10383856;28;20159;-66
2021/03/14 08:17:42;;;;;;;5.03;1.58;;;;;;;7.72;57.84;99578.84;10386915;28;20272;-64
2021/03/14 08:22:45;;;;;;;4.00;1.15;;;;;;;8.04;57.43;99583.38;10388120;28;20406;-65
2021/03/14 08:27:49;;;;;;;4.28;1.58;;;;;;;8.28;56.94;99590.31;10381277;28;20499;-63
2021/03/14 08:32:50;;;;;;;4.07;1.50;;;;;;;8.90;55.58;99591.38;10381981;28;20053;-64
2021/03/14 08:38:25;;;;;;;2.28;0.95;;;;;;;9.24;52.54;99609.78;10381650;28;20132;-64
2021/03/14 08:43:42;;;;;;;4.73;1.40;;;;;;;8.74;52.97;99599.81;10381431;28;20230;-64
2021/03/14 08:48:44;;;;;;;5.13;1.33;;;;;;;8.54;53.33;99611.22;10378594;28;20432;-63
2021/03/14 08:53:45;;;;;;;3.90;0.93;;;;;;;8.49;53.67;99614.25;10380157;28;20095;-64
2021/03/14 08:59:04;;;;;;;5.05;1.20;;;;;;;8.31;53.56;99604.13;10382301;28;20132;-65
2021/03/14 09:04:13;;;;;;;4.10;1.30;;;;;;;8.25;54.36;99614.41;10384860;28;20548;-65
2021/03/14 09:09:21;;;;;;;3.92;1.33;;;;;;;8.29;54.33;99599.94;10381331;28;20081;-64
2021/03/14 09:14:37;;;;;;;4.72;1.42;;;;;;;8.16;54.71;99617.81;10380046;28;20049;-64
2021/03/14 09:19:40;;;;;;;5.72;3.38;;;;;;;7.84;56.08;99621.25;10377498;28;20056;-64
2021/03/14 09:25:01;;;;;;;2.78;1.00;;;;;;;7.69;56.83;99616.16;10377412;28;20272;-63
2021/03/14 09:30:17;;;;;;;4.70;1.70;;;;;;;7.82;56.11;99629.31;10376508;28;20042;-64
2021/03/14 09:35:21;;;;;;;2.92;1.30;;;;;;;8.82;53.07;99623.88;10378680;28;20053;-64
2021/03/14 09:40:27;;;;;;;5.37;1.97;;;;;;;9.05;52.09;99633.56;10378529;28;20055;-64
2021/03/14 09:45:29;;;;;;;2.40;1.27;;;;;;;8.69;51.68;99609.13;10379299;28;20041;-64
2021/03/14 09:50:37;;;;;;;2.50;1.42;;;;;;;8.34;52.76;99637.53;10376609;28;20067;-63
2021/03/14 09:55:47;;;;;;;4.25;1.40;;;;;;;8.62;52.00;99640.63;10373864;28;20121;-64
2021/03/14 10:00:51;;;;;;;3.35;1.48;;;;;;;9.79;48.51;99646.72;10379751;28;20045;-64
2021/03/14 10:05:53;;;;;;;2.90;1.30;;;;;;;10.00;48.10;99630.69;10382288;28;20072;-64
2021/03/14 10:11:06;;;;;;;6.45;1.17;;;;;;;10.00;47.31;99637.84;10380282;28;20967;-64
2021/03/14 10:16:14;;;;;;;4.53;2.50;;;;;;;9.97;47.13;99644.25;10379545;28;20045;-64
2021/03/14 10:21:25;;;;;;;3.88;2.13;;;;;;;10.64;46.95;99651.72;10378592;28;20041;-64
2021/03/14 10:26:27;;;;;;;6.53;2.05;;;;;;;10.90;44.95;99649.34;10379197;28;20406;-64
2021/03/14 10:31:32;;;;;;;3.40;1.27;;;;;;;10.58;46.04;99651.31;10381144;28;20120;-64
2021/03/14 10:36:35;;;;;;;2.92;1.00;;;;;;;10.46;45.98;99655.03;10377531;28;20577;-64
2021/03/14 10:41:43;;;;;;;3.17;1.10;;;;;;;10.58;45.23;99638.00;10376856;28;20052;-65
2021/03/14 10:46:49;;;;;;;3.53;1.23;;;;;;;12.64;42.65;99637.34;10376165;28;22599;-68
2021/03/14 10:51:53;;;;;;;3.58;1.30;;;;;;;13.07;40.57;99644.59;10379828;28;20046;-64
2021/03/14 10:56:55;;;;;;;4.40;1.60;;;;;;;12.90;41.34;99653.47;10383058;28;20053;-65
2021/03/14 11:02:18;;;;;;;4.80;2.08;;;;;;;12.40;42.80;99656.63;10385858;28;20061;-64
2021/03/14 11:07:30;;;;;;;2.22;1.15;;;;;;;15.53;35.26;99659.00;10426116;28;20069;-65
2021/03/14 11:12:35;;;;;;;3.05;1.17;;;;;;;12.37;42.18;99668.47;10393066;28;20546;-65
2021/03/14 11:17:50;;;;;;;3.53;1.25;;;;;;;10.95;47.84;99652.44;10387675;28;20041;-63
2021/03/14 11:22:53;;;;;;;3.85;1.75;;;;;;;10.90;48.82;99665.31;10385942;28;20049;-65
2021/03/14 11:27:55;;;;;;;3.38;1.38;;;;;;;10.61;49.44;99661.69;10386395;28;20463;-63
2021/03/14 11:32:57;;;;;;;7.85;1.80;;;;;;;11.38;48.22;99655.59;10386093;28;20052;-63
2021/03/14 11:37:58;;;;;;;4.85;1.88;;;;;;;11.91;46.94;99668.34;10384209;28;20416;-67
2021/03/14 11:43:00;;;;;;;5.07;2.40;;;;;;;10.16;49.58;99669.22;10393550;28;20052;-66
2021/03/14 11:48:01;;;;;;;7.80;2.75;;;;;;;9.30;53.04;99678.31;10397506;28;20048;-66
2021/03/14 11:53:02;;;;;;;6.05;1.60;;;;;;;8.73;55.40;99669.75;10392549;28;20037;-65
2021/03/14 11:58:03;;;;;;;5.70;1.70;;;;;;;8.67;55.75;99684.38;10385092;22;20056;-71
2021/03/14 12:03:05;;;;;;;3.22;1.40;;;;;;;8.48;54.80;99671.78;10352051;28;20062;-71
2021/03/14 12:08:06;;;;;;;3.47;1.63;;;;;;;8.40;54.95;99666.19;10356975;28;20046;-73
2021/03/14 12:13:08;;;;;;;3.67;1.65;;;;;;;8.40;54.27;99663.56;10360702;28;20423;-72
2021/03/14 12:18:09;;;;;;;4.65;2.00;;;;;;;8.86;53.92;99669.59;10352576;28;20155;-72
2021/03/14 12:23:12;;;;;;;3.42;1.27;;;;;;;9.12;53.49;99675.38;10351173;28;20431;-73
2021/03/14 12:28:13;;;;;;;2.45;1.30;;;;;;;8.98;53.26;99673.06;10333859;28;20129;-72
2021/03/14 12:33:16;;;;;;;3.95;2.00;;;;;;;9.54;52.20;99661.28;10333623;28;20045;-72
2021/03/14 12:38:18;;;;;;;2.75;1.77;;;;;;;9.09;52.81;99665.03;10337244;28;20050;-72
2021/03/14 12:43:21;;;;;;;3.58;1.83;;;;;;;8.49;55.21;99654.03;10353577;28;20049;-72
2021/03/14 12:48:22;;;;;;;2.53;1.70;;;;;;;8.19;55.96;99660.81;10333756;28;20124;-73
2021/03/14 12:53:24;;;;;;;5.50;1.70;;;;;;;8.23;55.97;99664.09;10335486;28;20050;-72
2021/03/14 12:58:25;;;;;;;2.40;1.58;;;;;;;8.25;56.21;99659.50;10356748;28;20128;-71
2021/03/14 13:03:26;;;;;;;1.88;1.48;;;;;;;8.14;56.93;99666.50;10354623;28;20412;-72
2021/03/14 13:08:28;;;;;;;1.73;1.33;;;;;;;8.20;57.11;99661.69;10353929;28;20046;-72
2021/03/14 13:13:29;;;;;;;1.30;1.20;;;;;;;8.22;56.99;99660.56;10350750;28;20141;-72
2021/03/14 13:18:31;;;;;;;1.92;1.38;;;;;;;8.34;57.20;99653.44;10350846;28;20444;-72
2021/03/14 13:23:35;;;;;;;1.75;1.30;;;;;;;8.37;56.90;99647.06;10363290;28;20056;-71
2021/03/14 13:28:37;;;;;;;2.63;1.38;;;;;;;8.27;57.50;99649.59;10353047;28;20050;-72
2021/03/14 13:33:38;;;;;;;1.80;1.10;;;;;;;8.45;57.15;99658.78;10366075;28;20074;-72
2021/03/14 13:38:41;;;;;;;1.73;1.00;;;;;;;8.42;56.89;99648.38;10352693;28;20129;-72
2021/03/14 13:43:42;;;;;;;0.82;0.82;;;;;;;17.00;38.22;99640.59;10337026;28;20046;-72
2021/03/14 13:48:45;;;;;;;1.35;0.68;;;;;;;22.93;26.51;99651.34;10363768;28;20397;-74
2021/03/14 13:53:46;;;;;;;0.70;0.50;;;;;;;21.97;26.27;99649.50;10351049;28;20576;-73
2021/03/14 13:58:47;;;;;;;0.80;0.35;;;;;;;20.12;28.93;99651.56;10330322;28;20140;-72
2021/03/14 14:03:49;;;;;;;0.90;0.52;;;;;;;15.24;37.42;99648.81;10314176;28;20116;-72
2021/03/14 14:08:50;;;;;;;0.80;0.57;;;;;;;13.29;42.51;99661.13;10330755;28;20042;-73
2021/03/14 14:13:52;;;;;;;0.70;0.50;;;;;;;12.08;44.87;99658.75;10352898;28;20488;-72
2021/03/14 14:18:53;;;;;;;0.80;0.68;;;;;;;11.63;46.09;99668.31;10342585;28;20428;-72
2021/03/14 14:23:54;;;;;;;1.10;0.82;;;;;;;10.91;47.49;99654.56;10346875;28;20046;-73
2021/03/14 14:28:55;;;;;;;0.50;0.50;;;;;;;11.08;48.36;99668.09;10346884;28;20428;-72
2021/03/14 14:33:56;;;;;;;2.15;0.40;;;;;;;11.70;47.35;99670.41;10346503;28;20056;-71
2021/03/14 14:38:59;;;;;;;2.92;2.05;;;;;;;11.10;48.20;99671.50;10329105;28;20048;-71
2021/03/14 14:44:01;;;;;;;1.30;0.80;;;;;;;10.59;50.22;99676.09;10346438;28;20054;-72
2021/03/14 14:49:02;;;;;;;0.70;0.60;;;;;;;10.34;51.66;99678.25;10329589;28;20046;-71
2021/03/14 14:54:04;;;;;;;1.48;1.38;;;;;;;9.98;53.19;99687.63;10347113;28;20416;-71
2021/03/14 14:59:05;;;;;;;0.80;0.60;;;;;;;9.44;54.40;99698.38;10320746;28;20053;-72
2021/03/14 15:04:06;;;;;;;1.35;0.70;;;;;;;9.05;57.36;99714.03;10346578;28;20128;-70
2021/03/14 15:09:08;;;;;;;1.65;1.33;;;;;;;8.86;59.43;99706.78;10348339;28;20744;-71
2021/03/14 15:14:10;;;;;;;1.08;0.70;;;;;;;8.84;59.48;99706.91;10350647;28;20100;-71
2021/03/14 15:19:11;;;;;;;1.10;1.00;;;;;;;9.28;57.90;99706.81;10331856;28;20224;-72
2021/03/14 15:24:13;;;;;;;0.60;0.40;;;;;;;9.33;56.86;99709.94;10349232;28;20060;-72
2021/03/14 15:29:14;;;;;;;0.55;0.50;;;;;;;9.57;56.67;99710.66;10332224;28;20562;-72
2021/03/14 15:34:15;;;;;;;0.85;0.50;;;;;;;9.20;56.65;99704.81;10356982;28;20698;-72
2021/03/14 15:39:17;;;;;;;1.63;0.70;;;;;;;9.13;57.01;99719.56;10353612;28;20248;-72
2021/03/14 15:44:18;;;;;;;0.52;0.50;;;;;;;9.12;60.58;99733.81;10335556;28;20523;-72
2021/03/14 15:49:19;;;;;;;1.08;0.55;;;;;;;9.17;60.59;99726.31;10353869;28;20073;-72
2021/03/14 15:54:21;;;;;;;0.93;0.82;;;;;;;8.95;62.62;99748.47;10354392;28;20046;-73
2021/03/14 15:59:22;;;;;;;0.90;0.80;;;;;;;8.97;63.03;99740.38;10337316;28;20049;-72
2021/03/14 16:04:23;;;;;;;1.42;1.10;;;;;;;9.19;62.22;99731.50;10329368;28;20135;-72
2021/03/14 16:09:27;;;;;;;1.38;1.10;;;;;;;9.23;61.79;99735.56;10337978;28;20140;-72
2021/03/14 16:14:29;;;;;;;1.90;1.73;;;;;;;9.32;62.27;99728.66;10356212;28;20058;-72
2021/03/14 16:19:30;;;;;;;2.58;1.70;;;;;;;9.26;61.00;99735.31;10357023;28;20105;-72
2021/03/14 16:24:31;;;;;;;2.63;1.95;;;;;;;9.34;61.80;99748.81;10364859;28;20061;-72
2021/03/14 16:29:32;;;;;;;3.72;3.03;;;;;;;9.38;59.69;99744.06;10360520;28;20073;-72
2021/03/14 16:34:33;;;;;;;1.90;1.70;;;;;;;9.16;59.56;99751.19;10346568;28;20089;-72
2021/03/14 16:39:35;;;;;;;1.95;1.75;;;;;;;9.22;58.94;99756.94;10363071;28;20526;-72
2021/03/14 16:44:41;;;;;;;1.88;1.70;;;;;;;9.11;57.89;99764.00;10363607;28;20073;-71
2021/03/14 16:49:42;;;;;;;2.05;1.75;;;;;;;8.72;58.77;99768.06;10355578;28;20121;-71
2021/03/14 16:54:43;;;;;;;2.08;1.88;;;;;;;8.85;58.91;99780.22;10355446;28;20069;-72
2021/03/14 16:59:45;;;;;;;1.88;1.50;;;;;;;8.65;57.76;99767.72;10353261;28;20120;-70
2021/03/14 17:04:46;;;;;;;3.60;1.92;;;;;;;8.65;58.41;99778.34;10355565;28;20136;-72
2021/03/14 17:09:47;;;;;;;2.20;2.00;;;;;;;8.57;58.19;99786.06;10351802;28;20136;-73
2021/03/14 17:14:48;;;;;;;2.08;1.88;;;;;;;8.49;59.34;99790.16;10356181;28;20069;-71
2021/03/14 17:19:49;;;;;;;1.42;1.33;;;;;;;8.61;59.48;99792.81;10359005;28;20083;-72
2021/03/14 17:24:51;;;;;;;1.63;1.52;;;;;;;8.36;59.61;99793.88;10336273;28;20057;-71
2021/03/14 17:29:53;;;;;;;2.17;1.70;;;;;;;8.53;59.70;99805.81;10356966;28;20540;-72
2021/03/14 17:34:54;;;;;;;2.08;1.60;;;;;;;8.01;61.12;99806.25;10357221;28;20068;-70
2021/03/14 17:39:56;;;;;;;2.20;2.00;;;;;;;7.59;63.06;99805.91;10350950;28;20108;-71
2021/03/14 17:44:58;;;;;;;4.13;3.33;;;;;;;7.85;62.42;99803.09;10350537;28;20046;-72
2021/03/14 17:49:59;;;;;;;5.57;4.95;;;;;;;7.75;63.46;99811.75;10355912;28;20351;-70
2021/03/14 17:55:00;;;;;;;3.38;2.63;;;;;;;7.80;62.96;99819.34;10351891;28;20342;-72
2021/03/14 18:00:03;;;;;;;2.80;2.60;;;;;;;7.91;62.68;99834.41;10425426;22;20076;-66
2021/03/14 18:05:06;;;;;;;4.32;3.25;;;;;;;7.97;62.09;99845.41;10433399;28;20470;-67
2021/03/14 18:10:09;;;;;;;3.85;3.45;;;;;;;7.92;62.24;99844.06;10438249;28;20533;-65
2021/03/14 18:15:11;;;;;;;3.83;2.80;;;;;;;8.01;61.90;99861.91;10444990;28;20140;-64
2021/03/14 18:20:14;;;;;;;4.78;3.60;;;;;;;8.01;61.20;99869.88;10409757;28;20048;-65
2021/03/14 18:25:15;;;;;;;4.80;3.45;;;;;;;8.08;61.85;99868.44;10413669;28;20132;-66
2021/03/14 18:30:20;;;;;;;4.10;2.65;;;;;;;8.12;61.51;99861.97;10432460;28;20526;-65
2021/03/14 18:35:23;;;;;;;2.72;2.42;;;;;;;7.91;61.65;99845.03;10398915;28;20118;-66
2021/03/14 18:40:28;;;;;;;3.22;2.47;;;;;;;7.88;62.43;99869.09;10404168;28;20115;-68
2021/03/14 18:45:29;;;;;;;3.03;2.47;;;;;;;7.80;62.26;99867.03;10413655;28;20127;-67
2021/03/14 18:50:30;;;;;;;3.40;1.73;;;;;;;7.71;61.65;99884.47;10411232;28;20416;-66
2021/03/14 18:55:32;;;;;;;3.20;2.88;;;;;;;7.60;62.37;99881.78;10409244;28;20055;-65
2021/03/14 19:00:33;;;;;;;3.05;2.40;;;;;;;7.56;62.53;99890.91;10442899;28;20142;-67
2021/03/14 19:05:34;;;;;;;4.03;2.20;;;;;;;7.32;62.81;99882.97;10403931;28;20053;-68
2021/03/14 19:10:36;;;;;;;3.92;2.10;;;;;;;7.18;63.02;99876.03;10422260;28;20052;-65
2021/03/14 19:15:39;;;;;;;3.97;2.40;;;;;;;7.14;64.06;99904.50;10420268;28;20587;-66
2021/03/14 19:20:40;;;;;;;3.90;2.97;;;;;;;7.17;63.47;99921.97;10419383;28;20069;-67
2021/03/14 19:25:41;;;;;;;3.70;2.33;;;;;;;6.92;63.99;99917.56;10416798;28;20118;-66
2021/03/14 19:30:43;;;;;;;3.72;2.20;;;;;;;6.99;63.66;99908.25;10458171;28;20060;-65
2021/03/14 19:35:45;;;;;;;4.07;2.70;;;;;;;6.96;63.56;99904.00;10404133;28;20068;-67
2021/03/14 19:40:46;;;;;;;4.30;2.53;;;;;;;7.08;63.34;99904.94;10417181;28;20077;-67
2021/03/14 19:45:47;;;;;;;3.42;2.50;;;;;;;6.99;63.84;99903.78;10415369;28;20057;-65
2021/03/14 19:50:48;;;;;;;3.38;2.90;;;;;;;6.87;65.15;99912.59;10416371;28;22504;-66
2021/03/14 19:55:50;;;;;;;3.95;3.33;;;;;;;6.85;65.85;99917.19;10419137;28;20149;-65
2021/03/14 20:00:51;;;;;;;4.03;3.55;;;;;;;6.79;65.75;99917.59;10450281;28;20057;-66
2021/03/14 20:05:52;;;;;;;6.05;3.45;;;;;;;6.87;65.43;99917.91;10418062;28;20485;-65
2021/03/14 20:10:53;;;;;;;5.85;3.28;;;;;;;6.83;65.72;99919.06;10420280;28;20622;-66
2021/03/14 20:15:55;;;;;;;4.10;3.00;;;;;;;6.75;65.71;99902.91;10418993;28;20053;-65
2021/03/14 20:20:56;;;;;;;4.28;3.40;;;;;;;6.84;65.97;99913.66;10416202;28;20084;-65
2021/03/14 20:25:58;;;;;;;4.32;3.88;;;;;;;6.82;65.89;99917.38;10450855;28;20108;-65
2021/03/14 20:31:00;;;;;;;3.95;3.42;;;;;;;6.68;66.27;99921.84;10450473;28;20543;-69
2021/03/14 20:36:02;;;;;;;6.85;4.30;;;;;;;6.57;66.81;99924.38;10410802;28;20049;-65
2021/03/14 20:41:03;;;;;;;3.83;3.47;;;;;;;6.39;66.96;99915.06;10409080;28;20053;-65
2021/03/14 20:46:05;;;;;;;4.65;3.20;;;;;;;6.41;67.21;99929.03;10416381;28;20133;-65
2021/03/14 20:51:07;;;;;;;5.15;3.60;;;;;;;6.30;66.97;99917.38;10420197;28;20041;-65
2021/03/14 20:56:08;;;;;;;4.10;3.45;;;;;;;6.29;67.18;99913.06;10422917;28;20141;-65
2021/03/14 21:01:09;;;;;;;6.47;3.05;;;;;;;6.14;66.99;99912.31;10418427;28;20065;-65
2021/03/14 21:06:12;;;;;;;4.93;2.97;;;;;;;6.12;67.18;99929.19;10405030;28;20242;-66
2021/03/14 21:11:15;;;;;;;5.13;2.80;;;;;;;6.23;66.65;99925.81;10374763;28;20061;-66
2021/03/14 21:16:16;;;;;;;4.55;3.00;;;;;;;6.25;66.18;99923.94;10374459;28;20304;-65
2021/03/14 21:21:18;;;;;;;5.82;2.70;;;;;;;6.15;66.36;99915.78;10377862;28;20042;-65
2021/03/14 21:26:19;;;;;;;3.80;2.72;;;;;;;6.39;66.16;99942.34;10369959;28;20172;-65
2021/03/14 21:31:21;;;;;;;3.63;2.47;;;;;;;6.33;65.67;99930.38;10377986;28;20050;-66
2021/03/14 21:36:34;;;;;;;5.47;3.65;;;;;;;6.35;65.51;99927.63;10381112;28;20054;-66
2021/03/14 21:41:36;;;;;;;6.32;3.35;;;;;;;6.26;65.68;99915.03;10372896;28;20115;-66
2021/03/14 21:46:38;;;;;;;4.40;3.17;;;;;;;6.53;65.72;99933.47;10378591;28;20246;-64
2021/03/14 21:51:40;;;;;;;4.97;2.90;;;;;;;6.34;65.86;99907.47;10380713;28;20492;-65
2021/03/14 21:56:41;;;;;;;6.15;2.65;;;;;;;6.38;66.13;99916.88;10375558;28;20092;-64
2021/03/14 22:01:42;;;;;;;4.32;2.65;;;;;;;6.43;65.99;99916.56;10369328;28;20081;-65
2021/03/14 22:06:56;;;;;;;3.17;2.88;;;;;;;6.29;66.23;99912.19;10378114;28;20107;-64
2021/03/14 22:11:57;;;;;;;5.68;3.00;;;;;;;6.20;66.35;99889.91;10414337;28;20140;-65
2021/03/14 22:16:58;;;;;;;4.35;2.45;;;;;;;6.40;65.68;99914.13;10396816;28;20145;-65
2021/03/14 22:21:59;;;;;;;4.57;3.05;;;;;;;6.26;65.63;99905.34;10387723;28;20041;-67
2021/03/14 22:27:02;;;;;;;4.03;2.35;;;;;;;6.32;65.78;99893.47;10427587;28;20046;-65
2021/03/14 22:32:04;;;;;;;6.00;2.75;;;;;;;6.23;66.16;99902.91;10373805;28;20225;-66
2021/03/14 22:37:22;;;;;;;8.52;3.13;;;;;;;6.09;66.75;99887.97;10370422;28;20103;-65
2021/03/14 22:42:23;;;;;;;5.53;2.88;;;;;;;6.07;66.84;99895.16;10373432;28;20053;-64
2021/03/14 22:47:24;;;;;;;4.85;2.58;;;;;;;5.95;67.07;99878.31;10407016;28;20045;-67
2021/03/14 22:52:26;;;;;;;5.53;2.92;;;;;;;5.90;67.19;99890.13;10391513;28;20049;-65
2021/03/14 22:57:27;;;;;;;6.70;2.35;;;;;;;5.89;67.75;99897.22;10383831;28;20053;-67
2021/03/14 23:02:48;;;;;;;4.97;2.20;;;;;;;5.74;68.17;99904.34;10411700;28;20389;-65
2021/03/14 23:07:50;;;;;;;4.30;2.92;;;;;;;5.82;68.26;99907.34;10405713;28;20056;-65
2021/03/14 23:12:51;;;;;;;6.38;2.60;;;;;;;5.89;68.69;99886.63;10378040;28;20137;-65
2021/03/14 23:17:55;;;;;;;3.78;2.30;;;;;;;5.95;69.47;99883.59;10373984;28;20049;-64
2021/03/14 23:22:56;;;;;;;5.90;2.20;;;;;;;5.95;70.03;99880.94;10386386;28;20073;-65
2021/03/14 23:28:06;;;;;;;3.67;2.42;;;;;;;5.84;70.16;99868.47;10389081;28;20045;-64
2021/03/14 23:33:14;;;;;;;4.82;2.10;;;;;;;5.93;70.30;99863.50;10383433;28;20403;-65
2021/03/14 23:38:15;;;;;;;4.90;2.75;;;;;;;5.95;70.26;99859.81;10391876;28;20048;-65
2021/03/14 23:43:24;;;;;;;3.65;2.40;;;;;;;6.06;71.12;99877.59;10409629;28;20096;-65